createdAt,value
2022-10-23T00:01:38.120Z,22.20
2022-10-23T00:04:08.500Z,23.67
2022-10-23T00:06:37.594Z,20.03
2022-10-23T00:09:07.934Z,21.83
2022-10-23T00:11:36.498Z,23.00
2022-10-23T00:14:08.071Z,21.10
2022-10-23T00:16:39.074Z,21.73
2022-10-23T00:19:08.469Z,17.97
2022-10-23T00:21:36.475Z,19.93
2022-10-23T00:24:04.635Z,24.20
2022-10-23T00:26:32.780Z,17.00
2022-10-23T00:29:00.790Z,18.40
2022-10-23T00:31:28.777Z,21.47
2022-10-23T00:33:58.094Z,20.13
2022-10-23T00:36:25.998Z,22.37
2022-10-23T00:38:53.971Z,24.93
2022-10-23T00:41:24.135Z,21.43
2022-10-23T00:43:58.036Z,20.50
2022-10-23T00:46:26.373Z,19.87
2022-10-23T00:48:54.523Z,21.97
2022-10-23T00:51:24.334Z,21.30
2022-10-23T00:54:01.217Z,18.17
2022-10-23T00:56:45.494Z,16.37
2022-10-23T00:59:14.264Z,15.03
2022-10-23T01:01:42.910Z,20.37
2022-10-23T01:04:11.731Z,24.20
2022-10-23T01:06:46.592Z,26.67
2022-10-23T01:09:20.287Z,29.17
2022-10-23T01:11:54.363Z,29.13
2022-10-23T01:14:28.705Z,26.37
2022-10-23T01:17:05.442Z,23.70
2022-10-23T01:19:50.809Z,24.90
2022-10-23T01:22:39.682Z,24.03
2022-10-23T01:25:24.955Z,19.43
2022-10-23T01:28:00.414Z,27.57
2022-10-23T01:30:29.953Z,27.93
2022-10-23T01:33:03.377Z,26.43
2022-10-23T01:35:37.936Z,28.47
2022-10-23T01:38:10.800Z,22.00
2022-10-23T01:40:45.960Z,21.90
2022-10-23T01:43:21.478Z,22.60
2022-10-23T01:45:54.358Z,23.87
2022-10-23T01:48:26.621Z,22.00
2022-10-23T01:50:57.051Z,19.23
2022-10-23T01:53:30.825Z,24.07
2022-10-23T01:56:00.361Z,26.67
2022-10-23T01:58:32.720Z,21.60
2022-10-23T02:01:05.054Z,20.47
2022-10-23T02:03:36.707Z,20.67
2022-10-23T02:06:04.775Z,18.53
2022-10-23T02:08:33.163Z,19.40
2022-10-23T02:11:08.349Z,20.17
2022-10-23T02:13:47.925Z,21.07
2022-10-23T02:16:24.420Z,23.27
2022-10-23T02:18:58.495Z,20.80
2022-10-23T02:21:32.920Z,21.20
2022-10-23T02:24:04.553Z,23.33
2022-10-23T02:26:37.993Z,16.67
2022-10-23T02:29:13.719Z,19.93
2022-10-23T02:31:42.166Z,16.43
2022-10-23T02:34:10.186Z,16.03
2022-10-23T02:36:38.625Z,18.10
2022-10-23T02:39:06.720Z,16.90
2022-10-23T02:41:42.527Z,19.13
2022-10-23T02:44:34.499Z,17.47
2022-10-23T02:47:14.731Z,13.27
2022-10-23T02:49:50.172Z,18.10
2022-10-23T02:52:23.103Z,22.43
2022-10-23T02:55:18.173Z,18.57
2022-10-23T02:57:52.356Z,20.57
2022-10-23T03:00:23.148Z,18.97
2022-10-23T03:02:57.858Z,22.40
2022-10-23T03:05:29.387Z,23.33
2022-10-23T03:07:57.350Z,20.70
2022-10-23T03:10:25.690Z,20.33
2022-10-23T03:12:53.747Z,23.60
2022-10-23T03:15:23.091Z,22.97
2022-10-23T03:17:51.045Z,20.00
2022-10-23T03:20:19.618Z,22.57
2022-10-23T03:22:47.651Z,22.10
2022-10-23T03:25:15.871Z,21.40
2022-10-23T03:27:44.119Z,22.23
2022-10-23T03:30:13.079Z,23.67
2022-10-23T03:32:42.549Z,20.63
2022-10-23T03:35:10.786Z,22.50
2022-10-23T03:37:38.924Z,19.37
2022-10-23T03:40:08.045Z,18.53
2022-10-23T03:42:35.979Z,16.43
2022-10-23T03:45:04.140Z,21.97
2022-10-23T03:47:35.084Z,16.10
2022-10-23T03:50:04.888Z,18.00
2022-10-23T03:52:32.769Z,18.03
2022-10-23T03:55:00.867Z,13.93
2022-10-23T03:57:28.935Z,18.90
2022-10-23T03:59:56.949Z,14.97
2022-10-23T04:02:25.035Z,15.23
2022-10-23T04:04:53.344Z,15.37
2022-10-23T04:07:22.632Z,15.23
2022-10-23T04:09:50.662Z,12.17
2022-10-23T04:12:18.831Z,14.23
2022-10-23T04:14:46.846Z,16.10
2022-10-23T04:17:14.896Z,13.57
2022-10-23T04:19:42.972Z,15.63
2022-10-23T04:22:10.861Z,14.57
2022-10-23T04:24:45.461Z,14.27
2022-10-23T04:27:13.787Z,10.37
2022-10-23T04:29:42.014Z,13.87
2022-10-23T04:32:09.974Z,10.20
2022-10-23T04:34:37.942Z,16.33
2022-10-23T04:37:06.139Z,12.63
2022-10-23T04:39:34.071Z,13.13
2022-10-23T04:42:03.402Z,13.30
2022-10-23T04:44:31.371Z,14.90
2022-10-23T04:46:59.249Z,12.63
2022-10-23T04:49:27.130Z,12.70
2022-10-23T04:51:55.083Z,11.77
2022-10-23T04:54:23.104Z,9.23
2022-10-23T04:56:51.012Z,9.60
2022-10-23T04:59:20.714Z,17.27
2022-10-23T05:01:48.731Z,10.30
2022-10-23T05:04:16.746Z,12.03
2022-10-23T05:06:44.811Z,12.60
2022-10-23T05:09:12.782Z,15.33
2022-10-23T05:11:40.774Z,12.57
2022-10-23T05:14:08.807Z,16.03
2022-10-23T05:16:49.920Z,17.17
2022-10-23T05:19:26.451Z,17.40
2022-10-23T05:21:58.335Z,17.57
2022-10-23T05:24:27.597Z,14.87
2022-10-23T05:26:55.534Z,15.13
2022-10-23T05:29:24.539Z,13.77
2022-10-23T05:31:58.436Z,15.87
2022-10-23T05:34:28.266Z,18.03
2022-10-23T05:36:56.808Z,21.90
2022-10-23T05:39:25.130Z,21.87
2022-10-23T05:41:53.093Z,53.63
2022-10-23T05:44:20.972Z,21.37
2022-10-23T05:46:48.875Z,24.20
2022-10-23T05:49:18.223Z,22.37
2022-10-23T05:51:46.279Z,16.03
2022-10-23T05:54:14.120Z,17.47
2022-10-23T05:56:42.618Z,13.73
2022-10-23T05:59:11.031Z,21.20
2022-10-23T06:01:39.191Z,25.07
2022-10-23T06:04:07.434Z,10.30
2022-10-23T06:06:37.611Z,17.50
2022-10-23T06:09:05.926Z,14.17
2022-10-23T06:11:33.794Z,13.47
2022-10-23T06:14:01.879Z,10.43
2022-10-23T06:16:30.000Z,10.57
2022-10-23T06:18:58.573Z,11.63
2022-10-23T06:21:26.536Z,13.07
2022-10-23T06:23:56.595Z,10.50
2022-10-23T06:26:24.498Z,10.77
2022-10-23T06:28:52.595Z,14.67
2022-10-23T06:31:23.644Z,12.17
2022-10-23T06:33:51.534Z,14.40
2022-10-23T06:36:19.712Z,9.80
2022-10-23T06:38:47.652Z,11.20
2022-10-23T06:41:19.225Z,8.67
2022-10-23T06:43:48.857Z,8.67
2022-10-23T06:46:16.814Z,12.40
2022-10-23T06:48:45.158Z,9.23
2022-10-23T06:51:18.268Z,15.63
2022-10-23T06:53:46.906Z,7.67
2022-10-23T06:56:16.170Z,9.47
2022-10-23T06:58:44.049Z,6.13
2022-10-23T07:01:14.207Z,7.50
2022-10-23T07:03:42.277Z,9.63
2022-10-23T07:06:12.213Z,7.97
2022-10-23T07:08:40.477Z,10.87
2022-10-23T07:11:10.531Z,8.37
2022-10-23T07:13:40.819Z,7.87
2022-10-23T07:16:16.782Z,6.30
2022-10-23T07:18:45.648Z,6.33
2022-10-23T07:21:13.951Z,5.60
2022-10-23T07:23:41.897Z,7.63
2022-10-23T07:26:11.785Z,6.87
2022-10-23T07:28:42.576Z,6.10
2022-10-23T07:31:11.486Z,6.10
2022-10-23T07:33:39.857Z,7.07
2022-10-23T07:36:10.570Z,7.80
2022-10-23T07:38:38.575Z,9.50
2022-10-23T07:41:08.988Z,7.87
2022-10-23T07:43:41.460Z,6.73
2022-10-23T07:46:10.524Z,7.87
2022-10-23T07:48:39.253Z,10.87
2022-10-23T07:51:10.861Z,6.80
2022-10-23T07:53:39.620Z,5.37
2022-10-23T07:56:15.384Z,7.13
2022-10-23T07:58:45.017Z,7.67
2022-10-23T08:01:20.034Z,5.83
2022-10-23T08:03:48.072Z,12.97
2022-10-23T08:06:16.121Z,6.57
2022-10-23T08:11:15.315Z,6.33
2022-10-23T08:13:45.205Z,4.93
2022-10-23T08:16:13.476Z,7.90
2022-10-23T08:18:42.828Z,7.67
2022-10-23T08:21:11.319Z,6.60
2022-10-23T08:23:39.439Z,6.00
2022-10-23T08:26:08.160Z,5.63
2022-10-23T08:28:36.880Z,4.40
2022-10-23T08:31:13.657Z,4.97
2022-10-23T08:33:41.893Z,12.73
2022-10-23T08:36:18.427Z,10.13
2022-10-23T08:38:46.639Z,5.60
2022-10-23T08:41:25.991Z,9.53
2022-10-23T08:43:58.658Z,7.57
2022-10-23T08:46:31.458Z,5.60
2022-10-23T08:49:18.270Z,5.17
2022-10-23T08:51:50.001Z,4.13
2022-10-23T08:54:22.774Z,5.40
2022-10-23T08:56:55.670Z,6.57
2022-10-23T08:59:29.222Z,5.27
2022-10-23T09:02:03.565Z,4.63
2022-10-23T09:04:31.855Z,5.30
2022-10-23T09:10:01.687Z,5.33
2022-10-23T09:12:32.091Z,7.43
2022-10-23T09:15:18.581Z,5.37
2022-10-23T09:17:49.043Z,6.40
2022-10-23T09:20:22.543Z,7.37
2022-10-23T09:22:54.301Z,5.27
2022-10-23T09:25:25.271Z,6.10
2022-10-23T09:27:56.710Z,7.97
2022-10-23T09:30:28.307Z,6.40
2022-10-23T09:32:57.656Z,3.87
2022-10-23T09:35:28.090Z,6.47
2022-10-23T09:37:56.373Z,4.07
2022-10-23T09:40:31.087Z,4.67
2022-10-23T09:43:01.746Z,4.33
2022-10-23T09:45:33.181Z,3.60
2022-10-23T09:48:15.679Z,3.00
2022-10-23T09:50:49.464Z,6.97
2022-10-23T09:53:23.278Z,4.63
2022-10-23T09:55:56.965Z,4.03
2022-10-23T09:58:31.641Z,5.10
2022-10-23T10:00:59.762Z,5.03
2022-10-23T10:03:29.118Z,8.20
2022-10-23T10:05:59.387Z,5.30
2022-10-23T10:08:37.472Z,3.13
2022-10-23T10:11:13.184Z,4.40
2022-10-23T10:14:03.656Z,4.33
2022-10-23T10:16:43.846Z,4.53
2022-10-23T10:19:24.631Z,3.10
2022-10-23T10:22:02.592Z,5.40
2022-10-23T10:24:37.620Z,3.17
2022-10-23T10:27:15.642Z,2.50
2022-10-23T10:29:55.140Z,3.87
2022-10-23T10:32:36.781Z,3.20
2022-10-23T10:35:20.533Z,4.80
2022-10-23T10:38:02.217Z,5.53
2022-10-23T10:40:35.365Z,4.63
2022-10-23T10:43:36.667Z,2.90
2022-10-23T10:46:13.607Z,2.30
2022-10-23T10:48:49.080Z,3.47
2022-10-23T10:51:25.432Z,2.47
2022-10-23T10:54:09.885Z,3.83
2022-10-23T10:56:42.953Z,3.03
2022-10-23T10:59:17.436Z,3.63
2022-10-23T11:01:51.999Z,5.03
2022-10-23T11:04:29.515Z,3.23
2022-10-23T11:07:00.906Z,2.40
2022-10-23T11:09:33.520Z,4.07
2022-10-23T11:12:01.607Z,4.40
2022-10-23T11:14:34.139Z,2.83
2022-10-23T11:17:08.970Z,2.80
2022-10-23T11:19:42.748Z,2.97
2022-10-23T11:22:20.525Z,2.70
2022-10-23T11:25:21.405Z,4.73
2022-10-23T11:28:04.385Z,5.70
2022-10-23T11:30:44.309Z,2.37
2022-10-23T11:34:00.530Z,2.03
2022-10-23T11:36:44.036Z,3.00
2022-10-23T11:39:29.570Z,3.33
2022-10-23T11:41:59.956Z,2.40
2022-10-23T11:44:43.886Z,2.03
2022-10-23T11:47:36.453Z,3.30
2022-10-23T11:50:25.007Z,2.87
2022-10-23T11:53:16.192Z,3.37
2022-10-23T11:56:00.872Z,3.37
2022-10-23T11:58:41.589Z,4.23
2022-10-23T12:01:24.430Z,1.83
2022-10-23T12:03:55.529Z,3.23
2022-10-23T12:06:28.737Z,5.10
2022-10-23T12:09:01.161Z,3.27
2022-10-23T12:11:48.042Z,2.10
2022-10-23T12:14:31.004Z,2.27
2022-10-23T12:16:59.045Z,5.10
2022-10-23T12:19:28.572Z,4.33
2022-10-23T12:21:59.716Z,2.27
2022-10-23T12:24:40.487Z,4.67
2022-10-23T12:27:23.748Z,1.90
2022-10-23T12:30:14.535Z,2.70
2022-10-23T12:33:05.815Z,1.67
2022-10-23T12:35:59.469Z,3.23
2022-10-23T12:38:33.883Z,2.57
2022-10-23T12:41:13.944Z,2.50
2022-10-23T12:43:45.047Z,2.00
2022-10-23T12:46:30.233Z,1.23
2022-10-23T12:48:59.579Z,1.97
2022-10-23T12:51:29.260Z,1.47
2022-10-23T12:53:57.298Z,1.33
2022-10-23T12:56:28.604Z,1.53
2022-10-23T12:59:01.722Z,1.53
2022-10-23T13:01:31.711Z,2.30
2022-10-23T13:04:03.808Z,1.77
2022-10-23T13:06:32.570Z,1.90
2022-10-23T13:09:00.824Z,18.87
2022-10-23T13:11:29.534Z,2.90
2022-10-23T13:13:57.587Z,3.60
2022-10-23T13:16:28.090Z,0.97
2022-10-23T13:18:56.006Z,1.90
2022-10-23T13:21:26.176Z,1.17
2022-10-23T13:23:55.009Z,3.43
2022-10-23T13:26:31.653Z,1.33
2022-10-23T13:29:07.396Z,2.30
2022-10-23T13:31:38.174Z,1.30
2022-10-23T13:34:19.450Z,3.17
2022-10-23T13:36:53.866Z,2.27
2022-10-23T13:39:26.201Z,1.90
2022-10-23T13:41:54.682Z,1.50
2022-10-23T13:44:24.190Z,3.07
2022-10-23T13:46:53.903Z,3.43
2022-10-23T13:49:21.855Z,2.87
2022-10-23T13:51:52.175Z,6.87
2022-10-23T13:54:22.023Z,4.67
2022-10-23T13:56:50.323Z,6.13
2022-10-23T13:59:19.103Z,2.83
2022-10-23T14:01:48.330Z,4.00
2022-10-23T14:04:19.111Z,3.77
2022-10-23T14:06:46.998Z,3.67
2022-10-23T14:09:19.219Z,4.60
2022-10-23T14:11:47.852Z,4.30
2022-10-23T14:14:15.716Z,2.77
2022-10-23T14:16:43.724Z,2.87
2022-10-23T14:19:12.316Z,3.87
2022-10-23T14:21:41.550Z,3.70
2022-10-23T14:24:10.524Z,2.23
2022-10-23T14:26:38.478Z,2.57
2022-10-23T14:29:10.206Z,4.60
2022-10-23T14:31:41.909Z,2.97
2022-10-23T14:34:10.050Z,2.83
2022-10-23T14:36:49.486Z,2.60
2022-10-23T14:39:19.941Z,2.37
2022-10-23T14:41:48.663Z,3.73
2022-10-23T14:44:16.631Z,3.37
2022-10-23T14:46:44.641Z,2.27
2022-10-23T14:49:12.545Z,5.10
2022-10-23T14:51:40.471Z,2.37
2022-10-23T14:54:09.120Z,2.80
2022-10-23T14:56:40.888Z,2.53
2022-10-23T14:59:10.888Z,3.73
2022-10-23T15:01:43.785Z,4.07
2022-10-23T15:04:15.732Z,6.00
2022-10-23T15:06:43.951Z,7.40
2022-10-23T15:09:12.061Z,10.13
2022-10-23T15:11:41.473Z,8.87
2022-10-23T15:14:09.356Z,9.43
2022-10-23T15:16:41.440Z,6.50
2022-10-23T15:19:13.593Z,9.63
2022-10-23T15:21:45.294Z,11.57
2022-10-23T15:24:13.222Z,10.83
2022-10-23T15:26:43.289Z,12.63
2022-10-23T15:29:12.383Z,13.60
2022-10-23T15:31:46.935Z,10.37
2022-10-23T15:34:17.248Z,9.63
2022-10-23T15:36:47.059Z,7.60
2022-10-23T15:39:18.544Z,5.93
2022-10-23T15:41:48.085Z,6.20
2022-10-23T15:44:18.094Z,4.00
2022-10-23T15:46:47.428Z,3.90
2022-10-23T15:49:15.829Z,4.87
2022-10-23T15:51:43.830Z,7.97
2022-10-23T15:54:16.604Z,4.50
2022-10-23T15:56:45.142Z,2.77
2022-10-23T15:59:14.996Z,3.90
2022-10-23T16:01:43.441Z,4.10
2022-10-23T16:04:11.455Z,3.30
2022-10-23T16:06:39.670Z,6.23
2022-10-23T16:09:07.736Z,4.47
2022-10-23T16:11:38.065Z,3.73
2022-10-23T16:14:07.081Z,4.57
2022-10-23T16:16:36.300Z,3.70
2022-10-23T16:19:05.719Z,4.23
2022-10-23T16:21:36.001Z,4.53
2022-10-23T16:24:07.154Z,6.33
2022-10-23T16:26:35.861Z,5.60
2022-10-23T16:29:06.492Z,5.03
2022-10-23T16:31:36.251Z,3.80
2022-10-23T16:34:06.828Z,5.90
2022-10-23T16:36:35.502Z,4.83
2022-10-23T16:39:04.071Z,4.70
2022-10-23T16:41:32.145Z,7.63
2022-10-23T16:44:00.390Z,6.13
2022-10-23T16:46:28.550Z,4.57
2022-10-23T16:48:58.188Z,4.67
2022-10-23T16:51:27.816Z,4.73
2022-10-23T16:53:56.440Z,3.10
2022-10-23T16:56:27.920Z,4.27
2022-10-23T16:58:56.692Z,3.27
2022-10-23T17:01:27.304Z,6.90
2022-10-23T17:03:57.639Z,4.53
2022-10-23T17:06:27.778Z,2.50
2022-10-23T17:08:56.604Z,4.73
2022-10-23T17:11:26.520Z,4.93
2022-10-23T17:13:59.196Z,4.00
2022-10-23T17:16:29.210Z,3.53
2022-10-23T17:18:58.756Z,3.30
2022-10-23T17:21:26.696Z,5.40
2022-10-23T17:23:54.639Z,4.17
2022-10-23T17:26:23.598Z,6.30
2022-10-23T17:28:52.160Z,4.07
2022-10-23T17:31:22.275Z,5.90
2022-10-23T17:33:52.602Z,8.57
2022-10-23T17:36:22.931Z,7.70
2022-10-23T17:38:50.917Z,10.03
2022-10-23T17:41:20.864Z,7.57
2022-10-23T17:43:49.445Z,10.63
2022-10-23T17:46:19.650Z,6.93
2022-10-23T17:48:47.625Z,7.20
2022-10-23T17:51:17.425Z,10.37
2022-10-23T17:53:50.414Z,8.93
2022-10-23T17:56:20.321Z,7.33
2022-10-23T17:58:48.405Z,9.60
2022-10-23T18:01:18.914Z,11.87
2022-10-23T18:03:46.936Z,8.77
2022-10-23T18:06:17.962Z,8.60
2022-10-23T18:08:48.383Z,8.53
2022-10-23T18:11:17.518Z,8.50
2022-10-23T18:13:46.422Z,8.87
2022-10-23T18:16:15.599Z,8.87
2022-10-23T18:18:48.081Z,8.67
2022-10-23T18:21:17.356Z,9.43
2022-10-23T18:23:45.331Z,5.73
2022-10-23T18:26:17.842Z,9.17
2022-10-23T18:28:46.075Z,6.83
2022-10-23T18:31:15.391Z,8.17
2022-10-23T18:33:43.703Z,10.90
2022-10-23T18:36:16.641Z,13.03
2022-10-23T18:38:44.790Z,14.57
2022-10-23T18:41:12.991Z,14.70
2022-10-23T18:43:44.175Z,13.73
2022-10-23T18:46:12.907Z,9.03
2022-10-23T18:48:41.389Z,14.40
2022-10-23T18:51:15.840Z,13.37
2022-10-23T18:53:47.007Z,26.30
2022-10-23T18:56:16.432Z,8.70
2022-10-23T18:58:45.771Z,21.97
2022-10-23T19:01:13.923Z,23.20
2022-10-23T19:03:42.235Z,13.40
2022-10-23T19:06:10.684Z,16.83
2022-10-23T19:08:39.173Z,11.47
2022-10-23T19:11:09.825Z,10.90
2022-10-23T19:13:40.427Z,12.20
2022-10-23T19:16:14.395Z,8.33
2022-10-23T19:18:47.065Z,8.47
2022-10-23T19:21:15.674Z,11.80
2022-10-23T19:23:44.653Z,6.07
2022-10-23T19:26:14.342Z,8.30
2022-10-23T19:28:45.751Z,6.37
2022-10-23T19:31:15.829Z,5.47
2022-10-23T19:33:43.763Z,7.27
2022-10-23T19:36:14.271Z,5.63
2022-10-23T19:38:42.796Z,12.43
2022-10-23T19:41:10.941Z,9.90
2022-10-23T19:43:39.028Z,8.77
2022-10-23T19:46:11.010Z,7.80
2022-10-23T19:48:44.687Z,8.23
2022-10-23T19:51:13.982Z,9.07
2022-10-23T19:53:42.903Z,9.57
2022-10-23T19:56:12.806Z,12.77
2022-10-23T19:58:41.542Z,6.33
2022-10-23T20:01:11.799Z,5.27
2022-10-23T20:03:42.387Z,8.40
2022-10-23T20:06:11.701Z,7.17
2022-10-23T20:08:39.740Z,7.33
2022-10-23T20:11:08.211Z,5.30
2022-10-23T20:13:36.333Z,5.80
2022-10-23T20:16:04.506Z,3.93
2022-10-23T20:18:32.723Z,4.57
2022-10-23T20:21:03.668Z,4.67
2022-10-23T20:23:31.573Z,4.77
2022-10-23T20:26:05.747Z,5.30
2022-10-23T20:28:34.056Z,8.73
2022-10-23T20:31:08.537Z,4.33
2022-10-23T20:33:36.689Z,4.30
2022-10-23T20:36:08.596Z,7.10
2022-10-23T20:38:37.143Z,4.90
2022-10-23T20:41:05.931Z,4.40
2022-10-23T20:43:34.818Z,4.63
2022-10-23T20:46:04.979Z,6.33
2022-10-23T20:48:35.859Z,4.70
2022-10-23T20:51:05.712Z,5.73
2022-10-23T20:53:35.219Z,5.00
2022-10-23T20:56:06.668Z,10.37
2022-10-23T20:58:34.699Z,7.40
2022-10-23T21:01:06.857Z,4.10
2022-10-23T21:03:34.893Z,3.57
2022-10-23T21:06:09.903Z,4.90
2022-10-23T21:08:38.664Z,5.00
2022-10-23T21:11:08.054Z,5.20
2022-10-23T21:13:35.955Z,4.40
2022-10-23T21:16:13.751Z,5.37
2022-10-23T21:18:46.140Z,6.07
2022-10-23T21:21:19.369Z,4.80
2022-10-23T21:23:48.382Z,5.43
2022-10-23T21:26:17.426Z,8.30
2022-10-23T21:28:55.797Z,7.60
2022-10-23T21:31:29.248Z,7.80
2022-10-23T21:33:57.298Z,4.73
2022-10-23T21:36:27.524Z,5.77
2022-10-23T21:38:58.297Z,5.07
2022-10-23T21:41:27.993Z,3.50
2022-10-23T21:43:58.009Z,4.67
2022-10-23T21:46:27.413Z,3.30
2022-10-23T21:48:55.383Z,3.70
2022-10-23T21:51:25.330Z,5.33
2022-10-23T21:53:55.255Z,6.90
2022-10-23T21:56:30.483Z,5.67
2022-10-23T21:58:59.310Z,5.00
2022-10-23T22:01:27.889Z,8.13
2022-10-23T22:03:56.833Z,8.37
2022-10-23T22:06:26.885Z,6.37
2022-10-23T22:08:57.524Z,5.30
2022-10-23T22:11:26.182Z,10.70
2022-10-23T22:13:54.492Z,12.93
2022-10-23T22:16:22.421Z,11.20
2022-10-23T22:18:50.562Z,7.87
2022-10-23T22:21:21.307Z,11.40
2022-10-23T22:23:49.963Z,9.83
2022-10-23T22:26:24.110Z,10.33
2022-10-23T22:28:53.840Z,9.70
2022-10-23T22:31:24.373Z,14.00
2022-10-23T22:33:52.587Z,9.73
2022-10-23T22:36:21.032Z,10.17
2022-10-23T22:38:49.171Z,9.40
2022-10-23T22:41:17.644Z,13.50
2022-10-23T22:43:47.159Z,14.50
2022-10-23T22:46:16.446Z,8.43
2022-10-23T22:48:44.783Z,8.90
2022-10-23T22:51:14.100Z,12.30
2022-10-23T22:53:42.342Z,11.83
2022-10-23T22:56:13.179Z,12.23
2022-10-23T22:58:41.564Z,10.67
2022-10-23T23:01:15.123Z,9.77
2022-10-23T23:03:43.909Z,9.97
2022-10-23T23:06:12.639Z,8.77
2022-10-23T23:08:41.812Z,7.93
2022-10-23T23:11:12.572Z,8.37
2022-10-23T23:13:41.781Z,9.83
2022-10-23T23:16:19.157Z,9.23
2022-10-23T23:18:47.494Z,7.70
2022-10-23T23:21:16.171Z,10.97
2022-10-23T23:23:44.159Z,11.27
2022-10-23T23:26:12.416Z,9.17
2022-10-23T23:28:40.323Z,10.47
2022-10-23T23:31:13.797Z,7.83
2022-10-23T23:33:41.780Z,7.03
2022-10-23T23:36:12.563Z,5.47
2022-10-23T23:38:41.046Z,8.33
2022-10-23T23:41:13.725Z,8.07
2022-10-23T23:43:42.037Z,10.30
2022-10-23T23:46:12.353Z,8.53
2022-10-23T23:48:42.364Z,9.47
2022-10-23T23:51:10.393Z,9.03
2022-10-23T23:53:38.394Z,10.57
2022-10-23T23:56:07.912Z,9.03
2022-10-23T23:58:35.984Z,9.17
